createdAt,value
2023-01-17T00:00:30.685Z,3.55
2023-01-17T00:01:30.691Z,3.53
2023-01-17T00:02:30.753Z,3.51
2023-01-17T00:03:30.687Z,3.51
2023-01-17T00:04:30.636Z,3.48
2023-01-17T00:05:30.635Z,3.44
2023-01-17T00:06:30.639Z,3.48
2023-01-17T00:07:30.672Z,3.47
2023-01-17T00:08:30.607Z,3.44
2023-01-17T00:09:30.600Z,3.44
2023-01-17T00:10:30.581Z,3.45
2023-01-17T00:11:30.584Z,3.44
2023-01-17T00:12:30.569Z,3.44
2023-01-17T00:13:30.547Z,3.45
2023-01-17T00:14:30.528Z,3.45
2023-01-17T00:15:30.526Z,3.44
2023-01-17T00:16:30.513Z,3.42
2023-01-17T00:17:30.501Z,3.45
2023-01-17T00:18:30.509Z,3.44
2023-01-17T00:19:30.490Z,3.45
2023-01-17T00:20:30.482Z,3.44
2023-01-17T00:21:30.457Z,3.48
2023-01-17T00:22:30.454Z,3.47
2023-01-17T00:23:30.456Z,3.48
2023-01-17T00:24:30.453Z,3.48
2023-01-17T00:25:30.421Z,3.50
2023-01-17T00:26:30.484Z,3.47
2023-01-17T00:27:30.384Z,3.53
2023-01-17T00:28:30.413Z,3.53
2023-01-17T00:29:30.372Z,3.56
2023-01-17T00:30:30.365Z,3.55
2023-01-17T00:31:30.413Z,3.55
2023-01-17T00:32:30.367Z,3.58
2023-01-17T00:33:30.353Z,3.56
2023-01-17T00:34:30.362Z,3.56
2023-01-17T00:35:30.338Z,3.53
2023-01-17T00:36:30.304Z,3.53
2023-01-17T00:37:30.287Z,3.48
2023-01-17T00:38:30.290Z,3.53
2023-01-17T00:39:30.322Z,3.48
2023-01-17T00:40:30.282Z,3.51
2023-01-17T00:41:30.245Z,3.50
2023-01-17T00:42:30.239Z,3.50
2023-01-17T00:43:30.253Z,3.50
2023-01-17T00:44:30.231Z,3.48
2023-01-17T00:45:30.231Z,3.50
2023-01-17T00:46:30.220Z,3.48
2023-01-17T00:47:30.218Z,3.48
2023-01-17T00:48:30.229Z,3.50
2023-01-17T00:49:30.227Z,3.47
2023-01-17T00:50:30.179Z,3.47
2023-01-17T00:51:30.153Z,3.44
2023-01-17T00:52:30.161Z,3.45
2023-01-17T00:53:30.143Z,3.45
2023-01-17T00:54:30.168Z,3.42
2023-01-17T00:55:30.137Z,3.44
2023-01-17T00:56:30.115Z,3.44
2023-01-17T00:57:30.123Z,3.42
2023-01-17T00:58:30.116Z,3.37
2023-01-17T00:59:30.082Z,3.40
2023-01-17T01:00:30.162Z,3.40
2023-01-17T01:01:30.200Z,3.41
2023-01-17T01:02:30.090Z,3.40
2023-01-17T01:03:30.112Z,3.40
2023-01-17T01:04:30.025Z,3.41
2023-01-17T01:05:30.035Z,3.42
2023-01-17T01:06:30.018Z,3.42
2023-01-17T01:07:30.014Z,3.42
2023-01-17T01:08:30.481Z,3.41
2023-01-17T01:09:29.974Z,3.42
2023-01-17T01:10:29.959Z,3.40
2023-01-17T01:11:29.957Z,3.41
2023-01-17T01:12:29.947Z,3.37
2023-01-17T01:13:29.976Z,3.40
2023-01-17T01:14:29.915Z,3.34
2023-01-17T01:15:29.902Z,3.37
2023-01-17T01:16:29.936Z,3.34
2023-01-17T01:17:29.904Z,3.32
2023-01-17T01:18:29.924Z,3.36
2023-01-17T01:19:29.906Z,3.34
2023-01-17T01:20:29.870Z,3.32
2023-01-17T01:21:29.880Z,3.31
2023-01-17T01:22:29.839Z,3.28
2023-01-17T01:23:29.838Z,3.29
2023-01-17T01:24:29.898Z,3.28
2023-01-17T01:25:29.813Z,3.26
2023-01-17T01:26:29.849Z,3.23
2023-01-17T01:27:29.816Z,3.25
2023-01-17T01:28:29.809Z,3.26
2023-01-17T01:29:29.857Z,3.23
2023-01-17T01:30:29.773Z,3.23
2023-01-17T01:31:29.845Z,3.22
2023-01-17T01:32:29.768Z,3.23
2023-01-17T01:33:29.720Z,3.25
2023-01-17T01:34:29.755Z,3.23
2023-01-17T01:35:29.706Z,3.21
2023-01-17T01:36:29.725Z,3.23
2023-01-17T01:37:29.695Z,3.22
2023-01-17T01:38:29.693Z,3.23
2023-01-17T01:39:29.739Z,3.25
2023-01-17T01:40:29.673Z,3.22
2023-01-17T01:41:29.647Z,3.21
2023-01-17T01:42:29.640Z,3.21
2023-01-17T01:43:29.703Z,3.21
2023-01-17T01:44:29.691Z,3.22
2023-01-17T01:45:29.632Z,3.21
2023-01-17T01:46:29.610Z,3.21
2023-01-17T01:47:29.575Z,3.18
2023-01-17T01:48:29.581Z,3.19
2023-01-17T01:49:29.642Z,3.22
2023-01-17T01:50:29.545Z,3.21
2023-01-17T01:51:29.549Z,3.23
2023-01-17T01:52:29.522Z,3.25
2023-01-17T01:53:29.521Z,3.23
2023-01-17T01:54:29.546Z,3.25
2023-01-17T01:55:29.512Z,3.25
2023-01-17T01:56:29.483Z,3.23
2023-01-17T01:57:29.517Z,3.28
2023-01-17T01:58:29.479Z,3.28
2023-01-17T01:59:29.480Z,3.28
2023-01-17T02:00:29.478Z,3.34
2023-01-17T02:01:29.567Z,3.37
2023-01-17T02:02:29.425Z,3.37
2023-01-17T02:03:29.539Z,3.42
2023-01-17T02:04:29.424Z,3.42
2023-01-17T02:05:29.431Z,3.47
2023-01-17T02:06:29.390Z,3.50
2023-01-17T02:07:29.388Z,3.47
2023-01-17T02:08:29.369Z,3.51
2023-01-17T02:09:29.389Z,3.53
2023-01-17T02:10:29.455Z,3.53
2023-01-17T02:11:29.334Z,3.55
2023-01-17T02:12:29.333Z,3.58
2023-01-17T02:13:29.343Z,3.58
2023-01-17T02:14:29.341Z,3.58
2023-01-17T02:15:29.315Z,3.58
2023-01-17T02:16:29.300Z,3.56
2023-01-17T02:17:29.301Z,3.56
2023-01-17T02:18:29.258Z,3.56
2023-01-17T02:19:29.264Z,3.56
2023-01-17T02:20:29.308Z,3.56
2023-01-17T02:21:29.273Z,3.56
2023-01-17T02:22:29.247Z,3.55
2023-01-17T02:23:29.241Z,3.58
2023-01-17T02:24:29.205Z,3.58
2023-01-17T02:25:29.228Z,3.58
2023-01-17T02:26:29.192Z,3.55
2023-01-17T02:27:29.195Z,3.55
2023-01-17T02:28:29.216Z,3.53
2023-01-17T02:29:29.154Z,3.53
2023-01-17T02:30:29.165Z,3.53
2023-01-17T02:31:29.173Z,3.51
2023-01-17T02:32:29.118Z,3.48
2023-01-17T02:33:29.128Z,3.51
2023-01-17T02:34:29.100Z,3.48
2023-01-17T02:35:29.126Z,3.48
2023-01-17T02:36:29.105Z,3.48
2023-01-17T02:37:29.087Z,3.48
2023-01-17T02:38:29.110Z,3.48
2023-01-17T02:39:29.085Z,3.47
2023-01-17T02:40:29.045Z,3.48
2023-01-17T02:41:29.086Z,3.47
2023-01-17T02:42:29.039Z,3.45
2023-01-17T02:43:29.040Z,3.45
2023-01-17T02:44:29.064Z,3.45
2023-01-17T02:45:29.058Z,3.45
2023-01-17T02:46:29.001Z,3.44
2023-01-17T02:47:28.983Z,3.47
2023-01-17T02:48:28.966Z,3.45
2023-01-17T02:49:28.960Z,3.44
2023-01-17T02:50:28.966Z,3.41
2023-01-17T02:51:28.937Z,3.41
2023-01-17T02:52:28.925Z,3.42
2023-01-17T02:53:28.938Z,3.42
2023-01-17T02:54:28.897Z,3.41
2023-01-17T02:55:28.899Z,3.42
2023-01-17T02:56:28.985Z,3.41
2023-01-17T02:57:28.876Z,3.44
2023-01-17T02:58:28.861Z,3.44
2023-01-17T02:59:28.891Z,3.44
2023-01-17T03:00:28.904Z,3.45
2023-01-17T03:01:28.884Z,3.41
2023-01-17T03:02:28.934Z,3.42
2023-01-17T03:03:28.867Z,3.42
2023-01-17T03:04:28.808Z,3.42
2023-01-17T03:05:28.807Z,3.42
2023-01-17T03:06:28.781Z,3.42
2023-01-17T03:07:28.799Z,3.42
2023-01-17T03:08:28.767Z,3.41
2023-01-17T03:09:28.791Z,3.41
2023-01-17T03:10:28.767Z,3.42
2023-01-17T03:11:28.727Z,3.40
2023-01-17T03:12:28.769Z,3.37
2023-01-17T03:13:28.703Z,3.40
2023-01-17T03:14:28.694Z,3.37
2023-01-17T03:15:28.701Z,3.37
2023-01-17T03:16:28.741Z,3.37
2023-01-17T03:17:28.697Z,3.40
2023-01-17T03:18:28.674Z,3.36
2023-01-17T03:19:28.656Z,3.34
2023-01-17T03:20:28.675Z,3.34
2023-01-17T03:21:28.651Z,3.32
2023-01-17T03:22:28.634Z,3.32
2023-01-17T03:23:28.648Z,3.32
2023-01-17T03:24:28.605Z,3.29
2023-01-17T03:25:28.623Z,3.29
2023-01-17T03:26:28.601Z,3.29
2023-01-17T03:27:28.565Z,3.28
2023-01-17T03:28:28.569Z,3.28
2023-01-17T03:29:28.555Z,3.25
2023-01-17T03:30:28.614Z,3.25
2023-01-17T03:31:28.547Z,3.23
2023-01-17T03:32:28.528Z,3.22
2023-01-17T03:33:28.519Z,3.21
2023-01-17T03:34:28.496Z,3.21
2023-01-17T03:35:28.536Z,3.21
2023-01-17T03:36:28.474Z,3.19
2023-01-17T03:37:28.492Z,3.21
2023-01-17T03:38:28.454Z,3.18
2023-01-17T03:39:28.471Z,3.21
2023-01-17T03:40:28.462Z,3.18
2023-01-17T03:41:28.486Z,3.21
2023-01-17T03:42:28.417Z,3.19
2023-01-17T03:43:28.415Z,3.19
2023-01-17T03:44:28.433Z,3.21
2023-01-17T03:45:28.453Z,3.26
2023-01-17T03:46:28.373Z,3.23
2023-01-17T03:47:28.372Z,3.25
2023-01-17T03:48:28.359Z,3.28
2023-01-17T03:49:28.368Z,3.26
2023-01-17T03:50:28.470Z,3.28
2023-01-17T03:51:28.345Z,3.28
2023-01-17T03:52:28.332Z,3.29
2023-01-17T03:53:28.312Z,3.31
2023-01-17T03:54:28.305Z,3.31
2023-01-17T03:55:28.307Z,3.29
2023-01-17T03:56:28.274Z,3.32
2023-01-17T03:57:28.303Z,3.32
2023-01-17T03:58:28.252Z,3.31
2023-01-17T03:59:28.260Z,3.31
2023-01-17T04:00:28.269Z,3.29
2023-01-17T04:01:28.334Z,3.31
2023-01-17T04:02:28.254Z,3.28
2023-01-17T04:03:28.217Z,3.29
2023-01-17T04:04:28.230Z,3.29
2023-01-17T04:05:28.207Z,3.26
2023-01-17T04:06:28.219Z,3.26
2023-01-17T04:07:28.188Z,3.23
2023-01-17T04:08:28.171Z,3.22
2023-01-17T04:09:28.171Z,3.21
2023-01-17T04:10:28.247Z,3.21
2023-01-17T04:11:28.141Z,3.18
2023-01-17T04:12:28.101Z,3.16
2023-01-17T04:13:28.112Z,3.14
2023-01-17T04:14:28.104Z,3.13
2023-01-17T04:15:28.411Z,3.13
2023-01-17T04:16:28.132Z,3.13
2023-01-17T04:17:28.067Z,3.11
2023-01-17T04:18:28.052Z,3.11
2023-01-17T04:19:28.048Z,3.11
2023-01-17T04:20:28.054Z,3.11
2023-01-17T04:21:28.034Z,3.08
2023-01-17T04:22:28.060Z,3.13
2023-01-17T04:23:28.006Z,3.11
2023-01-17T04:24:28.009Z,3.10
2023-01-17T04:25:28.004Z,3.10
2023-01-17T04:26:27.980Z,3.11
2023-01-17T04:27:27.977Z,3.10
2023-01-17T04:28:27.965Z,3.11
2023-01-17T04:29:28.033Z,3.10
2023-01-17T04:30:27.967Z,3.10
2023-01-17T04:31:27.980Z,3.10
2023-01-17T04:32:27.950Z,3.11
2023-01-17T04:33:27.915Z,3.10
2023-01-17T04:34:27.870Z,3.08
2023-01-17T04:35:27.907Z,3.10
2023-01-17T04:36:27.868Z,3.08
2023-01-17T04:37:27.909Z,3.05
2023-01-17T04:38:27.853Z,3.04
2023-01-17T04:39:27.880Z,3.03
2023-01-17T04:40:27.821Z,3.05
2023-01-17T04:41:27.827Z,3.05
2023-01-17T04:42:27.836Z,3.07
2023-01-17T04:43:27.797Z,3.05
2023-01-17T04:44:27.786Z,3.05
2023-01-17T04:45:27.804Z,3.04
2023-01-17T04:46:27.827Z,3.03
2023-01-17T04:47:27.777Z,3.05
2023-01-17T04:48:27.734Z,3.04
2023-01-17T04:49:27.719Z,3.03
2023-01-17T04:50:27.749Z,3.04
2023-01-17T04:51:27.739Z,3.03
2023-01-17T04:52:27.741Z,3.01
2023-01-17T04:53:27.751Z,3.03
2023-01-17T04:54:27.702Z,3.03
2023-01-17T04:55:27.705Z,3.01
2023-01-17T04:56:27.669Z,3.00
2023-01-17T04:57:27.660Z,2.98
2023-01-17T04:58:27.681Z,2.95
2023-01-17T04:59:27.642Z,2.97
2023-01-17T05:00:27.679Z,3.00
2023-01-17T05:01:27.712Z,2.97
2023-01-17T05:02:27.639Z,2.93
2023-01-17T05:03:27.614Z,2.95
2023-01-17T05:04:27.615Z,2.97
2023-01-17T05:05:27.624Z,2.93
2023-01-17T05:06:27.621Z,2.92
2023-01-17T05:07:27.559Z,2.89
2023-01-17T05:08:27.559Z,2.87
2023-01-17T05:09:27.522Z,2.86
2023-01-17T05:10:27.548Z,2.82
2023-01-17T05:11:27.499Z,2.79
2023-01-17T05:12:27.500Z,2.77
2023-01-17T05:13:27.506Z,2.69
2023-01-17T05:14:27.483Z,2.72
2023-01-17T05:15:27.569Z,2.71
2023-01-17T05:16:27.460Z,2.67
2023-01-17T05:17:27.468Z,2.67
2023-01-17T05:18:27.432Z,2.68
2023-01-17T05:19:27.437Z,2.67
2023-01-17T05:20:27.430Z,2.65
2023-01-17T05:21:27.510Z,2.64
2023-01-17T05:22:27.415Z,2.62
2023-01-17T05:23:27.377Z,2.67
2023-01-17T05:24:27.377Z,2.61
2023-01-17T05:25:27.435Z,2.61
2023-01-17T05:26:27.359Z,2.61
2023-01-17T05:27:27.372Z,2.57
2023-01-17T05:28:27.364Z,2.56
2023-01-17T05:29:27.321Z,2.56
2023-01-17T05:30:27.307Z,2.56
2023-01-17T05:31:27.302Z,2.56
2023-01-17T05:32:27.414Z,2.57
2023-01-17T05:33:27.278Z,2.60
2023-01-17T05:34:27.282Z,2.61
2023-01-17T05:35:27.282Z,2.64
2023-01-17T05:36:27.275Z,2.64
2023-01-17T05:37:27.254Z,2.65
2023-01-17T05:38:27.251Z,2.68
2023-01-17T05:39:27.245Z,2.69
2023-01-17T05:40:27.217Z,2.69
2023-01-17T05:41:27.216Z,2.72
2023-01-17T05:42:27.201Z,2.72
2023-01-17T05:43:27.196Z,2.74
2023-01-17T05:44:27.188Z,2.75
2023-01-17T05:45:27.184Z,2.80
2023-01-17T05:46:27.224Z,2.75
2023-01-17T05:47:27.164Z,2.72
2023-01-17T05:48:27.138Z,2.72
2023-01-17T05:49:27.105Z,2.69
2023-01-17T05:50:27.287Z,2.67
2023-01-17T05:51:27.115Z,2.64
2023-01-17T05:52:27.076Z,2.62
2023-01-17T05:53:27.124Z,2.54
2023-01-17T05:54:27.087Z,2.42
2023-01-17T05:55:27.096Z,2.28
2023-01-17T05:56:27.046Z,2.17
2023-01-17T05:57:27.034Z,2.11
2023-01-17T05:58:27.035Z,2.00
2023-01-17T05:59:36.684Z,1.85
2023-01-17T06:00:27.053Z,1.76
2023-01-17T06:01:27.033Z,1.68
2023-01-17T06:02:27.018Z,1.60
2023-01-17T06:03:27.012Z,1.58
2023-01-17T06:04:27.138Z,1.55
2023-01-17T06:05:26.943Z,1.48
2023-01-17T06:06:26.982Z,1.42
2023-01-17T06:07:26.917Z,1.37
2023-01-17T06:08:26.955Z,1.30
2023-01-17T06:09:26.916Z,1.24
2023-01-17T06:10:26.928Z,1.22
2023-01-17T06:11:26.904Z,1.17
2023-01-17T06:12:26.862Z,1.10
2023-01-17T06:13:26.876Z,1.08
2023-01-17T06:14:26.862Z,1.05
2023-01-17T06:15:26.873Z,1.05
2023-01-17T06:16:26.882Z,1.02
2023-01-17T06:17:26.823Z,1.05
2023-01-17T06:18:26.841Z,1.01
2023-01-17T06:19:26.834Z,0.98
2023-01-17T06:20:26.838Z,0.98
2023-01-17T06:21:26.819Z,0.95
2023-01-17T06:22:26.802Z,0.96
2023-01-17T06:23:26.783Z,0.92
2023-01-17T06:24:26.758Z,0.92
2023-01-17T06:25:26.737Z,0.91
2023-01-17T06:26:26.743Z,0.87
2023-01-17T06:27:26.792Z,0.87
2023-01-17T06:28:26.763Z,0.81
2023-01-17T06:29:26.708Z,0.76
2023-01-17T06:30:26.710Z,0.76
2023-01-17T06:31:26.787Z,0.70
2023-01-17T06:32:26.673Z,0.69
2023-01-17T06:33:26.689Z,0.65
2023-01-17T06:34:26.658Z,0.68
2023-01-17T06:35:26.645Z,0.66
2023-01-17T06:36:26.678Z,0.68
2023-01-17T06:37:26.708Z,0.65
2023-01-17T06:38:26.607Z,0.68
2023-01-17T06:39:26.613Z,0.69
2023-01-17T06:40:26.602Z,0.70
2023-01-17T06:41:26.630Z,0.70
2023-01-17T06:42:26.576Z,0.69
2023-01-17T06:43:26.568Z,0.70
2023-01-17T06:44:26.558Z,0.66
2023-01-17T06:45:26.577Z,0.69
2023-01-17T06:46:26.593Z,0.69
2023-01-17T06:47:26.584Z,0.68
2023-01-17T06:48:26.556Z,0.70
2023-01-17T06:49:26.527Z,0.70
2023-01-17T06:50:26.487Z,0.70
2023-01-17T06:51:26.507Z,0.70
2023-01-17T06:52:26.492Z,0.70
2023-01-17T06:53:26.477Z,0.69
2023-01-17T06:54:26.421Z,0.70
2023-01-17T06:55:26.389Z,0.70
2023-01-17T06:56:26.481Z,0.70
2023-01-17T06:57:26.432Z,0.70
2023-01-17T06:58:26.451Z,0.66
2023-01-17T06:59:26.395Z,0.68
2023-01-17T07:00:26.431Z,0.66
2023-01-17T07:01:26.516Z,0.66
2023-01-17T07:02:26.407Z,0.66
2023-01-17T07:03:26.340Z,0.66
2023-01-17T07:04:26.322Z,0.65
2023-01-17T07:05:26.333Z,0.66
2023-01-17T07:06:26.307Z,0.65
2023-01-17T07:07:26.293Z,0.65
2023-01-17T07:08:26.303Z,0.65
2023-01-17T07:09:26.328Z,0.66
2023-01-17T07:10:26.258Z,0.66
2023-01-17T07:11:26.268Z,0.68
2023-01-17T07:12:26.250Z,0.66
2023-01-17T07:13:26.225Z,0.68
2023-01-17T07:14:26.255Z,0.69
2023-01-17T07:15:26.195Z,0.69
2023-01-17T07:16:26.247Z,0.70
2023-01-17T07:17:26.196Z,0.73
2023-01-17T07:18:26.210Z,0.74
2023-01-17T07:19:26.157Z,0.76
2023-01-17T07:20:26.190Z,0.77
2023-01-17T07:21:26.177Z,0.80
2023-01-17T07:22:26.152Z,0.80
2023-01-17T07:23:26.137Z,0.80
2023-01-17T07:24:26.147Z,0.86
2023-01-17T07:25:27.757Z,0.86
2023-01-17T07:26:26.162Z,0.87
2023-01-17T07:27:26.103Z,0.87
2023-01-17T07:28:26.079Z,0.87
2023-01-17T07:29:26.063Z,0.91
2023-01-17T07:30:26.055Z,0.92
2023-01-17T07:31:26.127Z,0.95
2023-01-17T07:32:26.052Z,0.96
2023-01-17T07:33:26.043Z,0.96
2023-01-17T07:34:26.018Z,0.99
2023-01-17T07:35:26.015Z,0.98
2023-01-17T07:36:26.056Z,1.02
2023-01-17T07:37:25.999Z,1.04
2023-01-17T07:38:25.984Z,1.04
2023-01-17T07:39:25.994Z,1.05
2023-01-17T07:40:26.005Z,1.08
2023-01-17T07:41:25.973Z,1.10
2023-01-17T07:42:25.934Z,1.14
2023-01-17T07:43:25.916Z,1.17
2023-01-17T07:44:25.971Z,1.19
2023-01-17T07:45:25.905Z,1.20
2023-01-17T07:46:26.006Z,1.23
2023-01-17T07:47:25.873Z,1.26
2023-01-17T07:48:25.874Z,1.28
2023-01-17T07:49:25.869Z,1.30
2023-01-17T07:50:25.917Z,1.30
2023-01-17T07:51:25.864Z,1.32
2023-01-17T07:52:25.843Z,1.32
2023-01-17T07:53:25.841Z,1.37
2023-01-17T07:54:25.900Z,1.35
2023-01-17T07:55:25.806Z,1.34
2023-01-17T07:56:25.819Z,1.38
2023-01-17T07:57:25.779Z,1.40
2023-01-17T07:58:25.790Z,1.40
2023-01-17T07:59:40.969Z,1.41
2023-01-17T08:00:25.832Z,1.38
2023-01-17T08:01:27.566Z,1.37
2023-01-17T08:02:25.737Z,1.37
2023-01-17T08:03:25.728Z,1.35
2023-01-17T08:04:25.743Z,1.37
2023-01-17T08:05:25.720Z,1.34
2023-01-17T08:06:25.716Z,1.31
2023-01-17T08:07:25.692Z,1.34
2023-01-17T08:08:25.683Z,1.34
2023-01-17T08:09:25.681Z,1.32
2023-01-17T08:10:25.752Z,1.34
2023-01-17T08:11:25.662Z,1.35
2023-01-17T08:12:25.641Z,1.35
2023-01-17T08:13:25.636Z,1.40
2023-01-17T08:14:25.627Z,1.42
2023-01-17T08:15:25.634Z,1.44
2023-01-17T08:16:25.642Z,1.48
2023-01-17T08:17:25.641Z,1.44
2023-01-17T08:18:25.603Z,1.45
2023-01-17T08:19:25.572Z,1.48
2023-01-17T08:20:27.703Z,1.52
2023-01-17T08:21:25.651Z,1.53
2023-01-17T08:22:25.537Z,1.53
2023-01-17T08:23:25.568Z,1.59
2023-01-17T08:24:25.547Z,1.56
2023-01-17T08:25:25.541Z,1.59
2023-01-17T08:26:25.570Z,1.60
2023-01-17T08:27:25.503Z,1.62
2023-01-17T08:28:25.489Z,1.66
2023-01-17T08:29:25.476Z,1.63
2023-01-17T08:30:25.504Z,1.63
2023-01-17T08:31:25.543Z,1.66
2023-01-17T08:32:25.462Z,1.66
2023-01-17T08:33:25.436Z,1.68
2023-01-17T08:34:25.420Z,1.67
2023-01-17T08:35:25.420Z,1.70
2023-01-17T08:36:25.443Z,1.67
2023-01-17T08:37:25.405Z,1.68
2023-01-17T08:38:25.388Z,1.68
2023-01-17T08:39:25.383Z,1.68
2023-01-17T08:40:25.376Z,1.68
2023-01-17T08:41:25.346Z,1.70
2023-01-17T08:42:25.389Z,1.70
2023-01-17T08:43:25.320Z,1.71
2023-01-17T08:44:25.336Z,1.70
2023-01-17T08:45:25.315Z,1.68
2023-01-17T08:46:25.305Z,1.71
2023-01-17T08:47:25.320Z,1.70
2023-01-17T08:48:25.306Z,1.70
2023-01-17T08:49:25.277Z,1.70
2023-01-17T08:50:25.280Z,1.71
2023-01-17T08:51:25.260Z,1.70
2023-01-17T08:52:25.354Z,1.70
2023-01-17T08:53:25.237Z,1.73
2023-01-17T08:54:25.253Z,1.73
2023-01-17T08:55:25.343Z,1.74
2023-01-17T08:56:25.208Z,1.76
2023-01-17T08:57:25.225Z,1.77
2023-01-17T08:58:25.182Z,1.77
2023-01-17T08:59:25.185Z,1.77
2023-01-17T09:00:25.197Z,1.74
2023-01-17T09:01:25.293Z,1.76
2023-01-17T09:02:25.166Z,1.77
2023-01-17T09:03:25.161Z,1.76
2023-01-17T09:04:25.219Z,1.76
2023-01-17T09:05:25.131Z,1.76
2023-01-17T09:06:25.119Z,1.74
2023-01-17T09:07:25.105Z,1.73
2023-01-17T09:08:25.093Z,1.70
2023-01-17T09:09:25.080Z,1.71
2023-01-17T09:10:25.101Z,1.74
2023-01-17T09:11:25.058Z,1.74
2023-01-17T09:12:25.060Z,1.73
2023-01-17T09:13:25.037Z,1.74
2023-01-17T09:14:25.057Z,1.74
2023-01-17T09:15:25.004Z,1.74
2023-01-17T09:16:25.045Z,1.74
2023-01-17T09:17:25.033Z,1.71
2023-01-17T09:18:24.980Z,1.73
2023-01-17T09:19:24.997Z,1.71
2023-01-17T09:20:24.964Z,1.71
2023-01-17T09:21:24.944Z,1.73
2023-01-17T09:22:24.986Z,1.71
2023-01-17T09:23:24.953Z,1.71
2023-01-17T09:24:24.922Z,1.73
2023-01-17T09:25:24.927Z,1.71
2023-01-17T09:26:24.903Z,1.73
2023-01-17T09:27:24.948Z,1.68
2023-01-17T09:28:24.917Z,1.71
2023-01-17T09:29:24.892Z,1.71
2023-01-17T09:30:24.979Z,1.70
2023-01-17T09:31:24.862Z,1.73
2023-01-17T09:32:24.867Z,1.73
2023-01-17T09:33:24.890Z,1.78
2023-01-17T09:34:25.112Z,1.84
2023-01-17T09:35:24.836Z,1.84
2023-01-17T09:36:24.792Z,1.85
2023-01-17T09:37:24.847Z,1.89
2023-01-17T09:38:24.776Z,1.92
2023-01-17T09:39:24.805Z,1.99
2023-01-17T09:40:24.801Z,2.04
2023-01-17T09:41:24.792Z,2.04
2023-01-17T09:42:24.787Z,2.08
2023-01-17T09:43:24.756Z,2.10
2023-01-17T09:44:24.745Z,2.14
2023-01-17T09:45:24.735Z,2.17
2023-01-17T09:46:24.724Z,2.18
2023-01-17T09:47:24.784Z,2.18
2023-01-17T09:48:24.679Z,2.22
2023-01-17T09:49:24.672Z,2.25
2023-01-17T09:50:24.664Z,2.29
2023-01-17T09:51:24.672Z,2.33
2023-01-17T09:52:24.684Z,2.32
2023-01-17T09:53:24.637Z,2.39
2023-01-17T09:54:24.694Z,2.36
2023-01-17T09:55:24.646Z,2.35
2023-01-17T09:56:24.614Z,2.38
2023-01-17T09:57:24.624Z,2.42
2023-01-17T09:58:24.597Z,2.39
2023-01-17T09:59:32.748Z,2.43
2023-01-17T10:00:24.602Z,2.43
2023-01-17T10:01:24.737Z,2.39
2023-01-17T10:02:26.534Z,2.42
2023-01-17T10:03:24.625Z,2.39
2023-01-17T10:04:24.608Z,2.38
2023-01-17T10:05:24.573Z,2.42
2023-01-17T10:06:24.534Z,2.33
2023-01-17T10:07:24.549Z,2.26
2023-01-17T10:08:24.513Z,2.22
2023-01-17T10:09:24.484Z,2.17
2023-01-17T10:10:24.462Z,2.17
2023-01-17T10:11:24.494Z,2.18
2023-01-17T10:12:24.528Z,2.18
2023-01-17T10:13:24.667Z,2.15
2023-01-17T10:14:24.453Z,2.22
2023-01-17T10:15:24.485Z,2.25
2023-01-17T10:16:24.492Z,2.28
2023-01-17T10:17:24.447Z,2.32
2023-01-17T10:18:29.989Z,2.31
2023-01-17T10:19:24.399Z,2.26
2023-01-17T10:20:24.414Z,2.33
2023-01-17T10:21:24.456Z,2.60
2023-01-17T10:22:24.407Z,2.86
2023-01-17T10:23:24.370Z,3.05
2023-01-17T10:24:24.348Z,3.16
2023-01-17T10:25:24.356Z,3.37
2023-01-17T10:26:24.301Z,3.34
2023-01-17T10:27:24.329Z,3.50
2023-01-17T10:28:24.315Z,3.69
2023-01-17T10:29:24.285Z,3.84
2023-01-17T10:30:24.284Z,3.86
2023-01-17T10:31:24.271Z,4.01
2023-01-17T10:32:24.310Z,4.13
2023-01-17T10:33:24.332Z,4.24
2023-01-17T10:34:24.224Z,4.32
2023-01-17T10:35:24.257Z,4.24
2023-01-17T10:36:24.218Z,4.30
2023-01-17T10:37:24.329Z,4.16
2023-01-17T10:38:24.203Z,4.24
2023-01-17T10:39:24.221Z,4.30
2023-01-17T10:40:24.188Z,4.28
2023-01-17T10:41:24.201Z,4.38
2023-01-17T10:42:24.205Z,4.31
2023-01-17T10:43:24.207Z,4.08
2023-01-17T10:44:24.137Z,4.05
2023-01-17T10:45:24.125Z,3.86
2023-01-17T10:46:24.162Z,3.87
2023-01-17T10:47:24.156Z,3.98
2023-01-17T10:48:24.107Z,4.08
2023-01-17T10:49:24.060Z,3.86
2023-01-17T10:50:24.043Z,3.66
2023-01-17T10:51:24.072Z,3.47
2023-01-17T10:52:24.082Z,3.32
2023-01-17T10:53:24.068Z,3.31
2023-01-17T10:54:24.033Z,3.45
2023-01-17T10:55:24.233Z,3.51
2023-01-17T10:56:24.022Z,3.59
2023-01-17T10:57:24.065Z,3.70
2023-01-17T10:58:23.983Z,3.80
2023-01-17T10:59:23.979Z,3.78
2023-01-17T11:00:23.949Z,3.68
2023-01-17T11:01:24.205Z,3.59
2023-01-17T11:02:24.042Z,3.58
2023-01-17T11:03:24.007Z,3.45
2023-01-17T11:04:23.949Z,3.50
2023-01-17T11:05:23.909Z,3.66
2023-01-17T11:06:23.915Z,3.84
2023-01-17T11:07:23.918Z,3.96
2023-01-17T11:08:23.886Z,4.02
2023-01-17T11:09:23.889Z,4.12
2023-01-17T11:10:23.883Z,4.22
2023-01-17T11:11:23.898Z,4.34
2023-01-17T11:12:23.886Z,4.45
2023-01-17T11:13:23.847Z,4.66
2023-01-17T11:14:23.861Z,4.71
2023-01-17T11:15:23.827Z,4.67
2023-01-17T11:16:25.072Z,4.55
2023-01-17T11:17:23.813Z,4.52
2023-01-17T11:18:23.777Z,4.60
2023-01-17T11:19:23.818Z,4.75
2023-01-17T11:20:23.795Z,4.94
2023-01-17T11:21:23.753Z,5.11
2023-01-17T11:22:23.788Z,5.21
2023-01-17T11:23:23.760Z,5.33
2023-01-17T11:24:23.732Z,5.51
2023-01-17T11:25:23.714Z,5.56
2023-01-17T11:26:23.688Z,5.51
2023-01-17T11:27:23.716Z,5.30
2023-01-17T11:28:23.674Z,5.23
2023-01-17T11:29:23.696Z,5.18
2023-01-17T11:30:23.651Z,5.21
2023-01-17T11:31:23.696Z,5.43
2023-01-17T11:32:23.651Z,5.51
2023-01-17T11:33:23.659Z,5.41
2023-01-17T11:34:23.669Z,5.41
2023-01-17T11:35:23.634Z,5.71
2023-01-17T11:36:23.627Z,6.05
2023-01-17T11:37:23.591Z,6.33
2023-01-17T11:38:23.586Z,6.12
2023-01-17T11:39:23.571Z,6.17
2023-01-17T11:40:23.532Z,6.36
2023-01-17T11:41:23.532Z,5.97
2023-01-17T11:42:23.744Z,5.79
2023-01-17T11:43:23.524Z,5.48
2023-01-17T11:44:23.516Z,5.61
2023-01-17T11:45:23.476Z,5.41
2023-01-17T11:46:23.512Z,5.05
2023-01-17T11:47:23.493Z,5.38
2023-01-17T11:48:23.491Z,5.68
2023-01-17T11:49:23.461Z,5.68
2023-01-17T11:50:23.435Z,6.05
2023-01-17T11:51:23.421Z,6.04
2023-01-17T11:52:23.406Z,5.76
2023-01-17T11:53:23.440Z,5.75
2023-01-17T11:54:23.620Z,6.08
2023-01-17T11:55:23.393Z,5.99
2023-01-17T11:56:23.405Z,5.86
2023-01-17T11:57:23.411Z,5.51
2023-01-17T11:58:23.358Z,5.26
2023-01-17T11:59:23.409Z,4.94
2023-01-17T12:00:23.356Z,4.84
2023-01-17T12:01:23.441Z,5.20
2023-01-17T12:02:23.332Z,5.59
2023-01-17T12:03:23.433Z,5.43
2023-01-17T12:04:23.339Z,5.10
2023-01-17T12:05:23.318Z,5.61
2023-01-17T12:06:23.311Z,5.98
2023-01-17T12:07:23.324Z,5.90
2023-01-17T12:08:23.273Z,5.12
2023-01-17T12:09:23.255Z,4.60
2023-01-17T12:10:23.254Z,4.55
2023-01-17T12:11:23.236Z,4.48
2023-01-17T12:12:23.221Z,4.41
2023-01-17T12:13:23.233Z,4.37
2023-01-17T12:14:23.210Z,4.32
2023-01-17T12:15:23.180Z,4.28
2023-01-17T12:16:23.167Z,4.17
2023-01-17T12:17:23.196Z,4.22
2023-01-17T12:18:23.138Z,4.23
2023-01-17T12:19:23.130Z,4.19
2023-01-17T12:20:23.129Z,4.17
2023-01-17T12:21:23.150Z,4.10
2023-01-17T12:22:23.113Z,4.01
2023-01-17T12:23:23.144Z,3.83
2023-01-17T12:24:23.129Z,3.66
2023-01-17T12:25:23.123Z,3.55
2023-01-17T12:26:23.090Z,3.45
2023-01-17T12:27:23.092Z,3.44
2023-01-17T12:28:23.085Z,3.41
2023-01-17T12:29:23.063Z,3.34
2023-01-17T12:30:23.048Z,3.40
2023-01-17T12:31:23.123Z,3.32
2023-01-17T12:32:23.037Z,3.29
2023-01-17T12:33:23.026Z,3.29
2023-01-17T12:34:23.019Z,3.32
2023-01-17T12:35:22.965Z,3.32
2023-01-17T12:36:23.113Z,3.37
2023-01-17T12:37:22.969Z,3.42
2023-01-17T12:38:32.134Z,3.47
2023-01-17T12:39:22.927Z,3.48
2023-01-17T12:40:22.912Z,3.42
2023-01-17T12:41:22.894Z,3.37
2023-01-17T12:42:22.886Z,3.29
2023-01-17T12:43:22.893Z,3.26
2023-01-17T12:44:22.867Z,3.23
2023-01-17T12:45:22.871Z,3.14
2023-01-17T12:46:22.867Z,3.14
2023-01-17T12:47:22.846Z,3.11
2023-01-17T12:48:22.841Z,3.10
2023-01-17T12:49:22.825Z,3.10
2023-01-17T12:50:22.810Z,3.10
2023-01-17T12:51:22.801Z,3.10
2023-01-17T12:52:22.780Z,3.08
2023-01-17T12:53:22.783Z,3.21
2023-01-17T12:54:22.764Z,3.18
2023-01-17T12:55:22.796Z,3.18
2023-01-17T12:56:22.773Z,3.18
2023-01-17T12:57:22.752Z,3.16
2023-01-17T12:58:22.768Z,3.23
2023-01-17T12:59:22.733Z,3.21
2023-01-17T13:00:22.753Z,3.19
2023-01-17T13:01:22.916Z,3.32
2023-01-17T13:02:22.726Z,3.42
2023-01-17T13:03:22.711Z,3.86
2023-01-17T13:04:22.713Z,4.28
2023-01-17T13:05:22.670Z,4.67
2023-01-17T13:06:22.677Z,5.00
2023-01-17T13:07:22.683Z,5.32
2023-01-17T13:08:22.643Z,5.48
2023-01-17T13:09:22.613Z,5.41
2023-01-17T13:10:22.601Z,5.36
2023-01-17T13:11:22.608Z,5.10
2023-01-17T13:12:22.650Z,4.92
2023-01-17T13:13:22.725Z,4.82
2023-01-17T13:14:22.640Z,4.73
2023-01-17T13:15:22.595Z,4.59
2023-01-17T13:16:22.609Z,4.49
2023-01-17T13:17:22.562Z,4.45
2023-01-17T13:18:22.549Z,4.40